createdAt,value
2019-05-26T00:01:43.424Z,21.12
2019-05-26T00:04:14.601Z,20.57
2019-05-26T00:06:45.527Z,21.25
2019-05-26T00:09:16.693Z,20.43
2019-05-26T00:11:47.533Z,22.17
2019-05-26T00:14:18.707Z,25.57
2019-05-26T00:16:48.820Z,26.48
2019-05-26T00:19:18.378Z,25.65
2019-05-26T00:21:49.046Z,29.27
2019-05-26T00:24:19.269Z,28.23
2019-05-26T00:26:48.917Z,24.92
2019-05-26T00:29:18.523Z,29.77
2019-05-26T00:31:49.721Z,30.70
2019-05-26T00:34:19.427Z,26.68
2019-05-26T00:36:49.123Z,25.92
2019-05-26T00:39:18.752Z,26.70
2019-05-26T00:41:48.466Z,31.05
2019-05-26T00:44:18.228Z,26.85
2019-05-26T00:46:47.777Z,25.57
2019-05-26T00:49:17.466Z,26.77
2019-05-26T00:51:48.184Z,27.50
2019-05-26T00:54:17.726Z,25.08
2019-05-26T00:56:49.020Z,25.20
2019-05-26T00:59:18.712Z,28.75
2019-05-26T01:01:48.288Z,27.37
2019-05-26T01:04:17.835Z,26.85
2019-05-26T01:06:47.408Z,28.07
2019-05-26T01:09:16.961Z,28.95
2019-05-26T01:11:46.518Z,29.30
2019-05-26T01:14:16.087Z,29.02
2019-05-26T01:16:47.305Z,30.17
2019-05-26T01:19:17.017Z,30.97
2019-05-26T01:21:46.563Z,33.95
2019-05-26T01:24:17.337Z,31.57
2019-05-26T01:26:47.013Z,33.08
2019-05-26T01:29:19.985Z,30.52
2019-05-26T01:32:02.156Z,32.03
2019-05-26T01:37:02.086Z,27.10
2019-05-26T01:39:31.914Z,23.85
2019-05-26T01:42:03.015Z,28.40
2019-05-26T01:44:32.716Z,20.73
2019-05-26T01:47:02.269Z,18.07
2019-05-26T01:49:31.853Z,21.02
2019-05-26T01:52:01.483Z,19.55
2019-05-26T01:54:32.142Z,18.60
2019-05-26T01:57:01.728Z,19.32
2019-05-26T01:59:31.280Z,19.02
2019-05-26T02:02:00.942Z,21.23
2019-05-26T02:04:30.578Z,24.85
2019-05-26T02:07:01.279Z,19.60
2019-05-26T02:09:30.861Z,19.75
2019-05-26T02:12:00.526Z,17.57
2019-05-26T02:14:30.100Z,16.02
2019-05-26T02:16:59.744Z,19.75
2019-05-26T02:19:29.363Z,16.00
2019-05-26T02:21:58.993Z,16.80
2019-05-26T02:24:28.560Z,16.17
2019-05-26T02:26:58.126Z,13.48
2019-05-26T02:29:27.668Z,13.90
2019-05-26T02:31:57.231Z,10.50
2019-05-26T02:34:26.770Z,8.55
2019-05-26T02:36:56.322Z,14.00
2019-05-26T02:39:25.905Z,9.85
2019-05-26T02:41:55.449Z,12.35
2019-05-26T02:44:25.092Z,12.20
2019-05-26T02:46:54.697Z,14.05
2019-05-26T02:49:24.314Z,15.20
2019-05-26T02:51:53.846Z,9.58
2019-05-26T02:54:23.421Z,9.85
2019-05-26T02:56:53.321Z,12.65
2019-05-26T02:59:22.840Z,9.33
2019-05-26T03:02:02.941Z,8.98
2019-05-26T03:04:23.732Z,8.33
2019-05-26T03:06:54.909Z,11.45
2019-05-26T03:09:26.989Z,9.78
2019-05-26T03:11:59.084Z,9.63
2019-05-26T03:17:01.813Z,7.30
2019-05-26T03:19:35.921Z,7.80
2019-05-26T03:22:05.992Z,7.10
2019-05-26T03:24:37.174Z,5.45
2019-05-26T03:27:06.868Z,9.70
2019-05-26T03:29:36.592Z,6.28
2019-05-26T03:32:06.148Z,5.47
2019-05-26T03:34:35.689Z,5.15
2019-05-26T03:37:05.313Z,5.85
2019-05-26T03:39:44.389Z,7.08
2019-05-26T03:42:07.281Z,7.95
2019-05-26T03:44:36.844Z,8.53
2019-05-26T03:47:09.476Z,7.37
2019-05-26T03:49:39.042Z,7.97
2019-05-26T03:52:08.667Z,6.87
2019-05-26T03:54:38.233Z,8.08
2019-05-26T03:57:07.771Z,8.00
2019-05-26T03:59:37.347Z,9.65
2019-05-26T04:02:08.490Z,10.85
2019-05-26T04:04:38.039Z,9.80
2019-05-26T04:07:07.725Z,11.03
2019-05-26T04:09:37.450Z,9.00
2019-05-26T04:12:07.087Z,8.35
2019-05-26T04:14:38.207Z,12.70
2019-05-26T04:17:07.846Z,8.37
2019-05-26T04:19:37.379Z,10.38
2019-05-26T04:22:09.945Z,9.35
2019-05-26T04:24:44.171Z,11.78
2019-05-26T04:27:14.554Z,8.30
2019-05-26T04:29:44.164Z,10.43
2019-05-26T04:32:13.733Z,8.93
2019-05-26T04:34:43.281Z,11.63
2019-05-26T04:37:12.994Z,11.57
2019-05-26T04:39:42.626Z,11.22
2019-05-26T04:42:12.195Z,11.15
2019-05-26T04:44:41.739Z,10.23
2019-05-26T04:47:11.361Z,10.00
2019-05-26T04:49:40.918Z,12.75
2019-05-26T04:52:10.478Z,12.05
2019-05-26T04:54:40.034Z,13.65
2019-05-26T04:57:09.605Z,9.05
2019-05-26T04:59:39.144Z,9.83
2019-05-26T05:02:08.840Z,12.60
2019-05-26T05:04:38.395Z,9.13
2019-05-26T05:07:07.961Z,10.05
2019-05-26T05:09:37.547Z,12.68
2019-05-26T05:12:07.164Z,11.75
2019-05-26T05:14:36.734Z,11.80
2019-05-26T05:17:06.452Z,11.33
2019-05-26T05:19:36.072Z,9.25
2019-05-26T05:22:05.954Z,11.05
2019-05-26T05:24:35.589Z,11.35
2019-05-26T05:27:05.269Z,9.90
2019-05-26T05:29:34.839Z,11.73
2019-05-26T05:32:04.523Z,10.55
2019-05-26T05:34:34.091Z,11.73
2019-05-26T05:37:03.699Z,13.45
2019-05-26T05:39:33.415Z,11.78
2019-05-26T05:42:03.029Z,12.05
2019-05-26T05:44:32.576Z,9.75
2019-05-26T05:47:02.199Z,12.65
2019-05-26T05:49:31.764Z,10.78
2019-05-26T05:52:02.448Z,12.33
2019-05-26T05:54:32.020Z,12.55
2019-05-26T05:57:01.560Z,12.15
2019-05-26T05:59:31.121Z,10.53
2019-05-26T06:02:00.731Z,11.28
2019-05-26T06:04:30.297Z,9.95
2019-05-26T06:06:59.844Z,10.98
2019-05-26T06:09:29.472Z,9.13
2019-05-26T06:11:59.047Z,9.35
2019-05-26T06:14:28.677Z,11.70
2019-05-26T06:16:58.342Z,10.75
2019-05-26T06:19:27.945Z,10.60
2019-05-26T06:21:57.588Z,12.13
2019-05-26T06:24:27.143Z,12.20
2019-05-26T06:26:56.714Z,9.13
2019-05-26T06:29:26.268Z,8.38
2019-05-26T06:31:56.214Z,10.35
2019-05-26T06:34:26.212Z,9.28
2019-05-26T06:36:55.917Z,9.58
2019-05-26T06:39:25.486Z,12.58
2019-05-26T06:41:55.102Z,9.60
2019-05-26T06:44:24.670Z,10.20
2019-05-26T06:46:54.310Z,14.30
2019-05-26T06:49:23.865Z,14.53
2019-05-26T06:51:54.563Z,14.33
2019-05-26T06:54:24.111Z,13.78
2019-05-26T06:56:53.699Z,15.95
2019-05-26T06:59:23.362Z,17.75
2019-05-26T07:01:52.985Z,16.40
2019-05-26T07:04:22.612Z,20.05
2019-05-26T07:06:52.304Z,15.88
2019-05-26T07:09:21.860Z,18.77
2019-05-26T07:11:59.064Z,15.50
2019-05-26T07:14:22.619Z,19.63
2019-05-26T07:16:52.267Z,17.67
2019-05-26T07:19:21.832Z,16.48
2019-05-26T07:21:51.412Z,17.48
2019-05-26T07:24:21.134Z,16.17
2019-05-26T07:26:50.703Z,19.12
2019-05-26T07:29:20.254Z,15.08
2019-05-26T07:31:49.853Z,17.32
2019-05-26T07:34:19.469Z,13.25
2019-05-26T07:36:49.036Z,11.88
2019-05-26T07:39:18.659Z,14.25
2019-05-26T07:41:48.291Z,10.10
2019-05-26T07:44:17.832Z,8.40
2019-05-26T07:46:50.432Z,11.03
2019-05-26T07:49:20.003Z,10.75
2019-05-26T07:51:49.547Z,7.62
2019-05-26T07:54:25.572Z,6.65
2019-05-26T07:56:50.372Z,8.35
2019-05-26T07:59:19.918Z,9.70
2019-05-26T08:01:49.480Z,9.63
2019-05-26T08:04:19.032Z,6.47
2019-05-26T08:06:48.650Z,7.17
2019-05-26T08:09:18.197Z,6.70
2019-05-26T08:11:47.752Z,6.55
2019-05-26T08:14:17.300Z,5.95
2019-05-26T08:16:46.981Z,8.35
2019-05-26T08:19:16.644Z,7.72
2019-05-26T08:21:46.181Z,7.00
2019-05-26T08:24:15.805Z,8.35
2019-05-26T08:26:45.362Z,9.20
2019-05-26T08:29:14.923Z,7.28
2019-05-26T08:31:44.469Z,6.60
2019-05-26T08:34:14.008Z,9.35
2019-05-26T08:36:43.581Z,7.05
2019-05-26T08:39:13.123Z,11.68
2019-05-26T08:41:43.511Z,5.97
2019-05-26T08:44:14.151Z,7.60
2019-05-26T08:46:43.709Z,9.35
2019-05-26T08:49:13.304Z,7.72
2019-05-26T08:51:42.939Z,5.33
2019-05-26T08:54:12.548Z,6.15
2019-05-26T08:56:43.360Z,4.42
2019-05-26T08:59:12.956Z,4.72
2019-05-26T09:01:42.633Z,3.08
2019-05-26T09:04:12.186Z,4.58
2019-05-26T09:06:41.746Z,4.75
2019-05-26T09:09:12.352Z,3.42
2019-05-26T09:11:42.373Z,4.47
2019-05-26T09:14:11.991Z,2.87
2019-05-26T09:16:41.613Z,2.70
2019-05-26T09:19:11.226Z,7.05
2019-05-26T09:21:40.794Z,2.72
2019-05-26T09:24:10.344Z,4.00
2019-05-26T09:26:39.890Z,4.72
2019-05-26T09:29:09.451Z,2.52
2019-05-26T09:31:39.013Z,2.33
2019-05-26T09:34:08.565Z,4.03
2019-05-26T09:36:38.182Z,2.12
2019-05-26T09:39:08.360Z,2.50
2019-05-26T09:41:37.992Z,5.87
2019-05-26T09:44:07.694Z,3.75
2019-05-26T09:46:37.250Z,2.55
2019-05-26T09:49:06.855Z,3.92
2019-05-26T09:51:36.475Z,6.12
2019-05-26T09:54:06.096Z,2.42
2019-05-26T09:56:36.161Z,2.60
2019-05-26T09:59:07.218Z,5.25
2019-05-26T10:01:36.786Z,2.93
2019-05-26T10:04:06.396Z,3.75
2019-05-26T10:06:37.190Z,3.52
2019-05-26T10:09:08.397Z,5.30
2019-05-26T10:11:38.271Z,3.12
2019-05-26T10:14:08.021Z,4.53
2019-05-26T10:16:37.597Z,2.37
2019-05-26T10:19:07.189Z,3.10
2019-05-26T10:21:36.747Z,3.95
2019-05-26T10:24:07.715Z,2.50
2019-05-26T10:26:37.282Z,4.75
2019-05-26T10:29:06.821Z,2.83
2019-05-26T10:31:36.410Z,4.35
2019-05-26T10:34:06.157Z,2.70
2019-05-26T10:36:35.794Z,5.50
2019-05-26T10:39:08.305Z,2.58
2019-05-26T10:41:39.514Z,2.98
2019-05-26T10:44:09.192Z,2.50
2019-05-26T10:46:38.866Z,4.75
2019-05-26T10:49:08.444Z,2.95
2019-05-26T10:51:37.997Z,6.90
2019-05-26T10:54:07.607Z,4.65
2019-05-26T10:56:37.176Z,4.50
2019-05-26T10:59:06.998Z,4.85
2019-05-26T11:01:36.608Z,3.40
2019-05-26T11:04:06.338Z,3.20
2019-05-26T11:06:35.969Z,3.87
2019-05-26T11:09:09.126Z,7.33
2019-05-26T11:11:39.556Z,3.58
2019-05-26T11:14:09.149Z,3.17
2019-05-26T11:16:38.781Z,3.33
2019-05-26T11:19:11.002Z,3.92
2019-05-26T11:21:40.541Z,3.33
2019-05-26T11:24:10.199Z,3.22
2019-05-26T11:26:39.808Z,3.30
2019-05-26T11:29:09.368Z,3.58
2019-05-26T11:31:38.934Z,2.72
2019-05-26T11:34:08.562Z,4.47
2019-05-26T11:36:38.179Z,4.87
2019-05-26T11:39:08.540Z,4.58
2019-05-26T11:41:38.085Z,2.55
2019-05-26T11:44:17.494Z,4.33
2019-05-26T11:46:38.897Z,3.10
2019-05-26T11:49:08.444Z,4.58
2019-05-26T11:51:38.046Z,2.75
2019-05-26T11:54:07.669Z,2.80
2019-05-26T11:56:37.230Z,2.50
2019-05-26T11:59:06.864Z,4.92
2019-05-26T12:01:36.495Z,2.90
2019-05-26T12:04:06.111Z,6.55
2019-05-26T12:06:35.725Z,6.65
2019-05-26T12:09:08.958Z,4.37
2019-05-26T12:11:38.548Z,3.92
2019-05-26T12:14:08.252Z,3.85
2019-05-26T12:16:37.859Z,4.83
2019-05-26T12:19:07.540Z,2.65
2019-05-26T12:21:37.110Z,3.00
2019-05-26T12:24:06.794Z,4.12
2019-05-26T12:26:36.341Z,3.25
2019-05-26T12:29:05.984Z,4.20
2019-05-26T12:31:35.561Z,5.55
2019-05-26T12:34:05.234Z,4.30
2019-05-26T12:36:38.347Z,5.55
2019-05-26T12:39:08.802Z,5.97
2019-05-26T12:41:38.379Z,2.85
2019-05-26T12:44:10.964Z,3.25
2019-05-26T12:46:39.242Z,3.50
2019-05-26T12:49:08.875Z,2.70
2019-05-26T12:51:38.404Z,2.65
2019-05-26T12:54:08.117Z,3.25
2019-05-26T12:56:37.720Z,3.25
2019-05-26T12:59:07.416Z,3.92
2019-05-26T13:01:36.970Z,3.85
2019-05-26T13:04:06.604Z,2.98
2019-05-26T13:06:36.240Z,3.58
2019-05-26T13:09:09.038Z,4.53
2019-05-26T13:11:38.654Z,3.52
2019-05-26T13:14:08.337Z,3.87
2019-05-26T13:16:38.024Z,3.42
2019-05-26T13:19:07.741Z,3.05
2019-05-26T13:21:37.429Z,3.92
2019-05-26T13:24:07.141Z,3.62
2019-05-26T13:26:36.711Z,3.20
2019-05-26T13:29:06.323Z,3.10
2019-05-26T13:31:35.968Z,4.00
2019-05-26T13:34:05.658Z,3.33
2019-05-26T13:36:35.229Z,3.90
2019-05-26T13:39:10.179Z,3.70
2019-05-26T13:41:39.759Z,5.12
2019-05-26T13:44:09.356Z,7.95
2019-05-26T13:46:38.912Z,4.30
2019-05-26T13:49:08.533Z,6.53
2019-05-26T13:51:38.116Z,5.55
2019-05-26T13:54:08.222Z,3.00
2019-05-26T13:56:42.107Z,3.75
2019-05-26T13:59:17.374Z,3.72
2019-05-26T14:01:45.338Z,2.98
2019-05-26T14:04:14.963Z,4.97
2019-05-26T14:06:44.509Z,5.15
2019-05-26T14:09:14.156Z,4.12
2019-05-26T14:11:43.754Z,3.77
2019-05-26T14:14:13.326Z,3.50
2019-05-26T14:16:44.785Z,3.75
2019-05-26T14:19:15.766Z,3.08
2019-05-26T14:21:45.300Z,2.53
2019-05-26T14:24:14.927Z,2.80
2019-05-26T14:26:44.542Z,4.42
2019-05-26T14:29:14.112Z,3.02
2019-05-26T14:31:43.633Z,3.00
2019-05-26T14:34:13.248Z,2.83
2019-05-26T14:36:42.800Z,1.90
2019-05-26T14:39:12.419Z,2.10
2019-05-26T14:41:41.981Z,5.92
2019-05-26T14:44:12.590Z,1.55
2019-05-26T14:46:42.131Z,1.62
2019-05-26T14:49:11.748Z,5.45
2019-05-26T14:51:41.301Z,1.70
2019-05-26T14:54:10.831Z,4.60
2019-05-26T14:56:40.370Z,2.58
2019-05-26T14:59:09.931Z,1.87
2019-05-26T15:01:39.474Z,1.47
2019-05-26T15:04:09.006Z,2.15
2019-05-26T15:06:38.542Z,3.92
2019-05-26T15:09:22.403Z,4.00
2019-05-26T15:14:09.846Z,2.17
2019-05-26T15:16:39.387Z,1.60
2019-05-26T15:19:08.998Z,2.37
2019-05-26T15:21:38.553Z,2.10
2019-05-26T15:24:08.154Z,3.30
2019-05-26T15:26:37.764Z,7.72
2019-05-26T15:29:07.389Z,3.27
2019-05-26T15:31:36.961Z,3.55
2019-05-26T15:34:06.636Z,5.50
2019-05-26T15:36:36.216Z,5.55
2019-05-26T15:39:07.005Z,2.20
2019-05-26T15:41:36.544Z,5.10
2019-05-26T15:44:06.098Z,3.22
2019-05-26T15:46:35.785Z,2.98
2019-05-26T15:49:05.470Z,2.27
2019-05-26T15:51:35.179Z,3.45
2019-05-26T15:54:04.869Z,3.85
2019-05-26T15:56:34.430Z,5.03
2019-05-26T15:59:04.422Z,3.33
2019-05-26T16:01:34.133Z,3.62
2019-05-26T16:04:03.833Z,5.67
2019-05-26T16:06:33.551Z,5.60
2019-05-26T16:09:04.834Z,3.85
2019-05-26T16:11:34.476Z,4.97
2019-05-26T16:14:04.126Z,5.12
2019-05-26T16:16:41.330Z,4.95
2019-05-26T16:19:06.614Z,5.05
2019-05-26T16:21:36.178Z,4.22
2019-05-26T16:24:06.944Z,4.20
2019-05-26T16:26:37.539Z,6.30
2019-05-26T16:29:07.445Z,5.92
2019-05-26T16:31:37.019Z,4.10
2019-05-26T16:34:09.805Z,3.92
2019-05-26T16:36:39.375Z,3.22
2019-05-26T16:39:09.072Z,3.60
2019-05-26T16:41:38.702Z,8.65
2019-05-26T16:44:08.244Z,3.40
2019-05-26T16:46:39.067Z,4.37
2019-05-26T16:49:08.689Z,3.42
2019-05-26T16:51:38.397Z,3.40
2019-05-26T16:54:08.509Z,3.37
2019-05-26T16:56:40.842Z,4.22
2019-05-26T16:59:10.556Z,3.67
2019-05-26T17:01:40.163Z,2.52
2019-05-26T17:04:11.566Z,3.45
2019-05-26T17:06:42.375Z,3.00
2019-05-26T17:09:11.983Z,3.90
2019-05-26T17:11:42.413Z,3.50
2019-05-26T17:14:13.509Z,3.87
2019-05-26T17:16:43.033Z,5.57
2019-05-26T17:19:12.702Z,6.58
2019-05-26T17:21:42.269Z,4.03
2019-05-26T17:24:11.901Z,6.87
2019-05-26T17:26:41.611Z,5.00
2019-05-26T17:29:11.263Z,3.60
2019-05-26T17:31:40.805Z,7.08
2019-05-26T17:34:10.387Z,8.05
2019-05-26T17:36:39.999Z,6.08
2019-05-26T17:39:09.817Z,6.30
2019-05-26T17:41:39.373Z,4.25
2019-05-26T17:44:09.006Z,5.90
2019-05-26T17:46:39.707Z,4.50
2019-05-26T17:49:09.392Z,4.70
2019-05-26T17:51:39.103Z,6.95
2019-05-26T17:54:08.864Z,6.03
2019-05-26T17:56:38.583Z,5.62
2019-05-26T17:59:09.260Z,5.33
2019-05-26T18:01:41.392Z,3.72
2019-05-26T18:04:11.323Z,6.80
2019-05-26T18:06:41.107Z,4.83
2019-05-26T18:09:10.764Z,4.58
2019-05-26T18:11:40.365Z,8.20
2019-05-26T18:14:09.966Z,4.85
2019-05-26T18:16:39.617Z,4.37
2019-05-26T18:19:09.176Z,4.20
2019-05-26T18:21:39.471Z,3.90
2019-05-26T18:24:10.160Z,4.62
2019-05-26T18:26:39.744Z,6.35
2019-05-26T18:29:09.303Z,6.33
2019-05-26T18:31:40.081Z,4.83
2019-05-26T18:34:10.458Z,4.85
2019-05-26T18:36:41.197Z,6.25
2019-05-26T18:39:11.312Z,4.22
2019-05-26T18:41:42.488Z,6.62
2019-05-26T18:44:12.238Z,5.75
2019-05-26T18:46:41.854Z,5.60
2019-05-26T18:49:11.490Z,5.08
2019-05-26T18:51:41.105Z,4.72
2019-05-26T18:54:10.824Z,5.30
2019-05-26T18:56:40.512Z,6.87
2019-05-26T18:59:10.061Z,4.05
2019-05-26T19:01:39.639Z,8.45
2019-05-26T19:04:09.327Z,3.87
2019-05-26T19:06:38.905Z,6.90
2019-05-26T19:09:10.206Z,5.60
2019-05-26T19:11:39.865Z,5.28
2019-05-26T19:14:09.546Z,6.25
2019-05-26T19:16:39.184Z,6.03
2019-05-26T19:19:08.886Z,6.58
2019-05-26T19:21:38.477Z,5.47
2019-05-26T19:24:08.167Z,5.80
2019-05-26T19:26:37.808Z,5.85
2019-05-26T19:29:07.405Z,7.50
2019-05-26T19:31:36.946Z,7.40
2019-05-26T19:34:06.620Z,8.25
2019-05-26T19:36:36.163Z,3.62
2019-05-26T19:39:09.128Z,7.53
2019-05-26T19:41:39.481Z,7.42
2019-05-26T19:44:09.364Z,5.08
2019-05-26T19:46:39.061Z,4.83
2019-05-26T19:49:08.616Z,4.87
2019-05-26T19:51:38.333Z,5.17
2019-05-26T19:54:08.088Z,8.93
2019-05-26T19:56:37.857Z,5.25
2019-05-26T19:59:07.565Z,7.62
2019-05-26T20:01:37.321Z,7.65
2019-05-26T20:04:07.037Z,5.42
2019-05-26T20:06:36.781Z,7.58
2019-05-26T20:09:08.333Z,6.53
2019-05-26T20:11:38.121Z,7.05
2019-05-26T20:14:08.476Z,6.85
2019-05-26T20:19:08.550Z,5.12
2019-05-26T20:21:38.185Z,7.80
2019-05-26T20:24:07.930Z,8.90
2019-05-26T20:26:37.635Z,8.63
2019-05-26T20:29:08.693Z,5.13
2019-05-26T20:31:38.378Z,3.83
2019-05-26T20:34:08.615Z,3.52
2019-05-26T20:36:38.382Z,4.08
2019-05-26T20:39:09.389Z,4.75
2019-05-26T20:41:39.146Z,6.70
2019-05-26T20:44:08.772Z,3.50
2019-05-26T20:46:38.445Z,5.28
2019-05-26T20:49:09.197Z,5.72
2019-05-26T20:51:38.748Z,4.47
2019-05-26T20:54:08.373Z,3.92
2019-05-26T20:56:37.923Z,5.80
2019-05-26T20:59:07.460Z,4.30
2019-05-26T21:01:36.983Z,3.40
2019-05-26T21:04:06.526Z,3.83
2019-05-26T21:06:36.099Z,4.62
2019-05-26T21:09:11.143Z,6.12
2019-05-26T21:11:39.051Z,3.70
2019-05-26T21:14:08.603Z,6.12
2019-05-26T21:16:38.241Z,5.47
2019-05-26T21:19:07.900Z,3.95
2019-05-26T21:21:37.536Z,5.08
2019-05-26T21:24:07.150Z,5.55
2019-05-26T21:26:36.695Z,4.70
2019-05-26T21:29:06.421Z,3.85
2019-05-26T21:31:35.973Z,3.52
2019-05-26T21:34:05.678Z,3.75
2019-05-26T21:36:35.288Z,3.33
2019-05-26T21:39:07.541Z,6.60
2019-05-26T21:41:37.090Z,6.03
2019-05-26T21:44:06.714Z,3.47
2019-05-26T21:46:36.279Z,3.27
2019-05-26T21:49:05.987Z,4.75
2019-05-26T21:51:35.594Z,4.22
2019-05-26T21:54:05.305Z,3.47
2019-05-26T21:56:35.929Z,4.58
2019-05-26T21:59:05.628Z,4.37
2019-05-26T22:01:35.328Z,4.33
2019-05-26T22:04:05.428Z,4.30
2019-05-26T22:06:35.099Z,3.12
2019-05-26T22:09:07.525Z,2.95
2019-05-26T22:11:37.078Z,3.77
2019-05-26T22:14:07.708Z,3.17
2019-05-26T22:16:37.349Z,3.45
2019-05-26T22:19:06.962Z,3.65
2019-05-26T22:21:36.516Z,4.25
2019-05-26T22:24:06.162Z,3.50
2019-05-26T22:26:35.769Z,7.30
2019-05-26T22:29:05.464Z,3.77
2019-05-26T22:31:36.099Z,6.90
2019-05-26T22:34:05.663Z,3.62
2019-05-26T22:36:35.684Z,3.75
2019-05-26T22:39:07.073Z,4.35
2019-05-26T22:41:36.987Z,5.20
2019-05-26T22:44:06.592Z,5.30
2019-05-26T22:46:36.278Z,7.08
2019-05-26T22:49:06.011Z,8.05
2019-05-26T22:51:35.581Z,7.40
2019-05-26T22:54:05.122Z,5.65
2019-05-26T22:56:34.811Z,5.22
2019-05-26T22:59:04.535Z,6.83
2019-05-26T23:01:34.216Z,6.45
2019-05-26T23:04:05.038Z,7.10
2019-05-26T23:06:34.719Z,7.62
2019-05-26T23:09:05.559Z,7.87
2019-05-26T23:11:35.240Z,10.68
2019-05-26T23:14:05.002Z,9.78
2019-05-26T23:16:34.683Z,9.53
2019-05-26T23:19:18.351Z,8.48
2019-05-26T23:21:35.618Z,7.20
2019-05-26T23:24:05.256Z,7.70
2019-05-26T23:26:35.182Z,12.95
2019-05-26T23:29:04.957Z,7.65
2019-05-26T23:31:34.582Z,7.42
2019-05-26T23:34:04.220Z,6.60
2019-05-26T23:36:33.776Z,8.40
2019-05-26T23:39:05.438Z,9.40
2019-05-26T23:41:35.042Z,12.47
2019-05-26T23:44:04.734Z,10.65
2019-05-26T23:46:36.449Z,9.08
2019-05-26T23:49:06.025Z,12.78
2019-05-26T23:51:35.730Z,11.03
2019-05-26T23:54:05.409Z,9.48
2019-05-26T23:56:34.987Z,9.93
2019-05-26T23:59:04.682Z,10.00
